Time;durP1;ratioP1;P1;durP2;ratioP2;P2;SDS_P1;SDS_P2;PMS_P1;PMS_P2;Temp;Humidity;BMP_temperature;BMP_pressure;BME280_temperature;BME280_humidity;BME280_pressure;Samples;Min_cycle;Max_cycle;Signal;HPM_P1;HPM_P2
2023/02/22 00:00:18;;;;;;;171.83;32.37;;;5.10;99.90;;;;;;5089857;28;20264;-89
2023/02/22 00:02:48;;;;;;;105.93;27.70;;;5.10;99.90;;;;;;5087177;28;20652;-91
2023/02/22 00:05:23;;;;;;;106.37;27.87;;;4.90;99.90;;;;;;5102735;28;20185;-88
2023/02/22 00:07:56;;;;;;;106.07;27.20;;;5.10;99.90;;;;;;5090856;28;20225;-89
2023/02/22 00:10:25;;;;;;;78.00;27.07;;;4.90;99.90;;;;;;5090797;28;20657;-88
2023/02/22 00:13:00;;;;;;;111.60;27.83;;;5.00;99.90;;;;;;5099548;28;20205;-89
2023/02/22 00:15:33;;;;;;;129.07;27.90;;;5.10;99.90;;;;;;5104273;28;20217;-90
2023/02/22 00:18:04;;;;;;;103.47;26.93;;;5.30;99.90;;;;;;5089609;28;20209;-88
2023/02/22 00:20:37;;;;;;;111.37;25.63;;;5.00;99.90;;;;;;5095758;28;20209;-88
2023/02/22 00:23:09;;;;;;;114.27;27.47;;;4.70;99.90;;;;;;5094613;28;20204;-89
2023/02/22 00:25:42;;;;;;;92.17;26.57;;;4.90;99.90;;;;;;5091197;28;20212;-89
2023/02/22 00:28:16;;;;;;;73.13;24.17;;;5.00;99.90;;;;;;5103023;28;20205;-86
2023/02/22 00:30:51;;;;;;;112.77;26.87;;;5.20;99.90;;;;;;5103278;28;20205;-87
2023/02/22 00:33:24;;;;;;;216.93;30.63;;;5.20;99.90;;;;;;5102180;28;20219;-88
2023/02/22 00:35:58;;;;;;;114.50;25.97;;;5.30;99.90;;;;;;5101249;28;20259;-88
2023/02/22 00:38:25;;;;;;;103.87;26.40;;;5.30;99.90;;;;;;5099671;28;20208;-87
2023/02/22 00:40:59;;;;;;;93.67;25.33;;;5.30;99.90;;;;;;5099059;28;20205;-89
2023/02/22 00:43:26;;;;;;;95.33;25.90;;;5.40;99.90;;;;;;5086009;28;20205;-86
2023/02/22 00:46:13;;;;;;;120.30;26.80;;;5.20;99.90;;;;;;5098154;28;20213;-88
2023/02/22 00:48:40;;;;;;;133.67;26.50;;;5.40;99.90;;;;;;5091154;28;20303;-88
2023/02/22 00:51:14;;;;;;;96.67;26.40;;;5.40;99.90;;;;;;5098453;28;20234;-88
2023/02/22 00:53:47;;;;;;;116.77;25.73;;;5.40;99.90;;;;;;5099624;28;20269;-86
2023/02/22 00:56:17;;;;;;;86.57;25.00;;;5.40;99.90;;;;;;5081566;28;20205;-87
2023/02/22 00:58:47;;;;;;;117.33;27.63;;;5.40;99.90;;;;;;5091908;28;20201;-87
2023/02/22 01:01:15;;;;;;;92.13;26.27;;;5.50;99.90;;;;;;5099601;28;20209;-87
2023/02/22 01:03:46;;;;;;;114.40;27.57;;;5.50;99.90;;;;;;5092244;28;20201;-90
2023/02/22 01:06:16;;;;;;;153.77;28.33;;;5.40;99.90;;;;;;5089499;28;20205;-90
2023/02/22 01:08:44;;;;;;;132.77;26.73;;;5.40;99.90;;;;;;5091380;28;20208;-87
2023/02/22 01:11:15;;;;;;;191.27;30.67;;;5.40;99.90;;;;;;5095910;28;20209;-88
2023/02/22 01:13:52;;;;;;;154.80;29.53;;;5.30;99.90;;;;;;5084665;28;20210;-87
2023/02/22 01:16:27;;;;;;;92.30;26.37;;;5.40;99.90;;;;;;5090380;28;20209;-89
2023/02/22 01:18:55;;;;;;;76.13;25.17;;;5.40;99.90;;;;;;5098773;28;20201;-90
2023/02/22 01:22:13;;;;;;;102.00;27.63;;;5.40;99.90;;;;;;5097264;28;20291;-89
2023/02/22 01:24:50;;;;;;;116.33;26.33;;;5.60;99.90;;;;;;5098469;28;20208;-86
2023/02/22 01:27:24;;;;;;;123.57;28.67;;;5.60;99.90;;;;;;5087161;28;20279;-88
2023/02/22 01:29:51;;;;;;;127.47;27.47;;;5.70;99.90;;;;;;5097677;28;20207;-90
2023/02/22 01:32:24;;;;;;;103.60;27.17;;;5.70;99.90;;;;;;5097533;28;20209;-86
2023/02/22 01:34:56;;;;;;;72.13;25.90;;;5.70;99.90;;;;;;5083951;28;20763;-89
2023/02/22 01:37:29;;;;;;;65.23;26.50;;;5.70;99.90;;;;;;5097761;28;20213;-87
2023/02/22 01:40:08;;;;;;;80.07;26.37;;;5.50;99.90;;;;;;5087505;28;20231;-87
2023/02/22 01:42:41;;;;;;;87.53;27.17;;;5.70;99.90;;;;;;5097764;28;20201;-89
2023/02/22 01:45:41;;;;;;;107.37;27.13;;;5.80;99.90;;;;;;5093563;28;20664;-90
2023/02/22 01:48:12;;;;;;;123.07;27.07;;;5.80;99.90;;;;;;5043917;28;20217;-86
2023/02/22 01:50:44;;;;;;;118.00;28.93;;;5.80;99.90;;;;;;5082573;28;20205;-89
2023/02/22 01:53:16;;;;;;;76.27;25.07;;;5.80;99.90;;;;;;5089027;28;20275;-88
2023/02/22 01:55:49;;;;;;;77.97;26.43;;;6.00;99.90;;;;;;5084276;28;20241;-88
2023/02/22 01:58:26;;;;;;;68.50;26.07;;;5.80;99.90;;;;;;5091820;28;20207;-86
2023/02/22 02:00:56;;;;;;;58.03;25.07;;;5.90;99.90;;;;;;5096304;28;20209;-89
2023/02/22 02:03:57;;;;;;;63.80;26.73;;;5.90;99.90;;;;;;5091831;28;20221;-87
2023/02/22 02:06:32;;;;;;;90.90;26.63;;;5.90;99.90;;;;;;5093102;28;20232;-88
2023/02/22 02:09:21;;;;;;;80.90;27.00;;;5.90;99.90;;;;;;5095398;28;20231;-88
2023/02/22 02:11:50;;;;;;;62.00;25.30;;;5.90;99.90;;;;;;5092201;28;20205;-87
2023/02/22 02:14:22;;;;;;;61.13;25.87;;;5.90;99.90;;;;;;5095269;28;20225;-87
2023/02/22 02:16:52;;;;;;;55.30;24.07;;;5.80;99.90;;;;;;5094237;28;20213;-88
2023/02/22 02:19:26;;;;;;;51.53;25.97;;;5.90;99.90;;;;;;5095229;28;20295;-88
2023/02/22 02:22:26;;;;;;;57.13;25.30;;;5.90;99.90;;;;;;5095283;28;20239;-88
2023/02/22 02:25:38;;;;;;;47.40;23.80;;;6.00;99.90;;;;;;5080003;28;20661;-88
2023/02/22 02:28:36;;;;;;;47.83;22.73;;;5.90;99.90;;;;;;5095168;28;20558;-86
2023/02/22 02:31:54;;;;;;;49.83;23.83;;;5.80;99.90;;;;;;5094333;28;20216;-91
2023/02/22 02:34:30;;;;;;;50.77;23.53;;;6.00;99.90;;;;;;5083675;28;20496;-89
2023/02/22 02:37:10;;;;;;;56.37;25.67;;;6.00;99.90;;;;;;5092426;28;20665;-90
2023/02/22 02:39:45;;;;;;;49.83;24.17;;;6.00;99.90;;;;;;5088403;28;20228;-88
2023/02/22 02:42:17;;;;;;;49.70;24.97;;;6.20;99.90;;;;;;5090123;28;20200;-91
2023/02/22 02:44:54;;;;;;;40.90;22.20;;;5.80;99.90;;;;;;5090659;28;20209;-88
2023/02/22 02:47:25;;;;;;;47.47;22.33;;;5.90;99.90;;;;;;5076682;28;20209;-86
2023/02/22 02:50:01;;;;;;;44.27;23.17;;;5.70;99.90;;;;;;5091643;28;20228;-90
2023/02/22 02:52:29;;;;;;;45.93;23.43;;;5.80;99.90;;;;;;5088525;28;20212;-89
2023/02/22 02:55:06;;;;;;;44.63;23.33;;;5.80;99.90;;;;;;5094772;28;20303;-90
2023/02/22 02:57:33;;;;;;;60.53;23.40;;;5.80;99.90;;;;;;5092113;28;20211;-89
2023/02/22 03:00:21;;;;;;;47.10;23.37;;;5.70;99.90;;;;;;5090177;28;20224;-87
2023/02/22 03:03:06;;;;;;;50.10;23.83;;;5.80;99.90;;;;;;5086201;28;20202;-87
2023/02/22 03:05:54;;;;;;;46.80;23.20;;;5.90;99.90;;;;;;5090187;28;20226;-88
2023/02/22 03:08:34;;;;;;;51.63;22.87;;;5.90;99.90;;;;;;5083888;28;20202;-88
2023/02/22 03:11:13;;;;;;;47.67;23.27;;;5.80;99.90;;;;;;5090299;28;20205;-86
2023/02/22 03:13:54;;;;;;;47.70;23.70;;;5.90;99.90;;;;;;5094472;28;20203;-89
2023/02/22 03:16:32;;;;;;;50.90;24.13;;;6.00;99.90;;;;;;5085911;28;20262;-88
2023/02/22 03:19:12;;;;;;;46.37;23.90;;;5.90;99.90;;;;;;5096693;28;20213;-87
2023/02/22 03:21:46;;;;;;;44.27;22.53;;;5.90;99.90;;;;;;5095521;28;20239;-87
2023/02/22 03:24:25;;;;;;;42.37;22.90;;;5.90;99.90;;;;;;5095830;28;20205;-87
2023/02/22 03:27:08;;;;;;;52.73;22.83;;;5.90;99.90;;;;;;5096126;28;20266;-89
2023/02/22 03:29:42;;;;;;;46.40;24.67;;;5.90;99.90;;;;;;5090040;28;20279;-88
2023/02/22 03:32:15;;;;;;;50.10;25.00;;;5.90;99.90;;;;;;5095348;28;20204;-90
2023/02/22 03:34:55;;;;;;;50.00;24.30;;;6.00;99.90;;;;;;5098526;28;20215;-87
2023/02/22 03:37:29;;;;;;;49.30;24.10;;;6.00;99.90;;;;;;5098170;28;20657;-90
2023/02/22 03:40:12;;;;;;;50.33;23.07;;;6.00;99.90;;;;;;5084251;28;20297;-88
2023/02/22 03:43:08;;;;;;;45.30;22.87;;;6.00;99.90;;;;;;5094342;28;20408;-87
2023/02/22 03:45:42;;;;;;;46.77;23.83;;;6.00;99.90;;;;;;5098774;28;20213;-87
2023/02/22 03:48:22;;;;;;;43.47;22.43;;;6.00;99.90;;;;;;5098013;28;20204;-89
2023/02/22 03:50:52;;;;;;;40.73;22.83;;;6.00;99.90;;;;;;5098086;28;20205;-89
2023/02/22 03:53:23;;;;;;;45.67;23.00;;;6.00;99.90;;;;;;5097826;28;20216;-88
2023/02/22 03:55:56;;;;;;;38.63;21.30;;;6.00;99.90;;;;;;5097892;28;20232;-87
2023/02/22 03:58:29;;;;;;;37.00;21.17;;;6.00;99.90;;;;;;5098510;28;20684;-90
2023/02/22 04:01:02;;;;;;;37.50;20.70;;;6.00;99.90;;;;;;5091717;28;20198;-88
2023/02/22 04:03:29;;;;;;;34.03;20.63;;;6.00;99.90;;;;;;5091022;28;20209;-90
2023/02/22 04:05:57;;;;;;;36.63;20.20;;;6.00;99.90;;;;;;5086101;28;20256;-87
2023/02/22 04:08:26;;;;;;;38.97;21.33;;;6.00;99.90;;;;;;5098503;28;20767;-87
2023/02/22 04:10:53;;;;;;;32.00;19.70;;;6.00;99.90;;;;;;5098771;28;20235;-87
2023/02/22 04:13:22;;;;;;;36.67;20.77;;;6.10;99.90;;;;;;5097585;28;20258;-88
2023/02/22 04:15:49;;;;;;;34.83;20.07;;;5.80;99.90;;;;;;5098255;28;20679;-88
2023/02/22 04:18:18;;;;;;;34.33;20.43;;;5.90;99.90;;;;;;5098363;28;20208;-87
2023/02/22 04:20:48;;;;;;;33.53;20.93;;;6.00;99.90;;;;;;5088037;28;20244;-87
2023/02/22 04:23:16;;;;;;;35.87;21.10;;;6.10;99.90;;;;;;5091163;28;20213;-88
2023/02/22 04:25:50;;;;;;;35.77;21.67;;;6.10;99.90;;;;;;5087287;28;20206;-89
2023/02/22 04:28:35;;;;;;;32.20;20.47;;;6.20;99.90;;;;;;5093762;28;20204;-88
2023/02/22 04:31:08;;;;;;;34.97;20.77;;;6.20;99.90;;;;;;5077985;28;20206;-89
2023/02/22 04:33:40;;;;;;;34.10;20.53;;;6.10;99.90;;;;;;5098228;28;20205;-88
2023/02/22 04:36:12;;;;;;;32.93;20.30;;;6.10;99.90;;;;;;5095475;28;20668;-86
2023/02/22 04:38:39;;;;;;;33.43;20.47;;;6.20;99.90;;;;;;5087218;28;20227;-84
2023/02/22 04:41:13;;;;;;;31.63;20.00;;;6.20;99.90;;;;;;5097321;28;20208;-88
2023/02/22 04:43:43;;;;;;;33.37;20.10;;;6.20;99.90;;;;;;5099888;28;20205;-86
2023/02/22 04:46:16;;;;;;;35.50;20.17;;;6.20;99.90;;;;;;5096640;28;20678;-86
2023/02/22 04:48:44;;;;;;;32.80;20.53;;;6.10;99.90;;;;;;5098139;28;20209;-87
2023/02/22 04:51:13;;;;;;;30.93;19.73;;;6.00;99.90;;;;;;5097207;28;20200;-88
2023/02/22 04:53:46;;;;;;;34.03;20.13;;;6.00;99.90;;;;;;5093791;28;20211;-89
2023/02/22 04:56:57;;;;;;;30.90;19.70;;;6.10;99.90;;;;;;5097748;28;20227;-90
2023/02/22 04:59:32;;;;;;;33.13;19.97;;;6.00;99.90;;;;;;5098293;28;20209;-90
2023/02/22 05:02:12;;;;;;;31.73;20.17;;;6.00;99.90;;;;;;5098029;28;20208;-88
2023/02/22 05:04:52;;;;;;;31.33;19.20;;;5.90;99.90;;;;;;5097323;28;20518;-89
2023/02/22 05:07:19;;;;;;;30.43;19.27;;;5.90;99.90;;;;;;5101092;28;20209;-92
2023/02/22 05:09:49;;;;;;;32.63;20.33;;;5.90;99.90;;;;;;5087699;28;20202;-88
2023/02/22 05:12:45;;;;;;;30.77;19.43;;;5.80;99.90;;;;;;5078488;28;20313;-89
2023/02/22 05:15:18;;;;;;;31.23;19.60;;;6.00;99.90;;;;;;5092729;28;20216;-88
2023/02/22 05:17:48;;;;;;;30.43;19.37;;;5.90;99.90;;;;;;5092084;28;20224;-89
2023/02/22 05:20:21;;;;;;;32.80;19.50;;;6.00;99.90;;;;;;5084459;28;20205;-87
2023/02/22 05:22:52;;;;;;;31.03;19.87;;;6.10;99.90;;;;;;5084223;28;20645;-89
2023/02/22 05:25:22;;;;;;;28.53;19.03;;;6.10;99.90;;;;;;5090945;28;20220;-89
2023/02/22 05:27:51;;;;;;;30.40;19.20;;;6.10;99.90;;;;;;5089040;28;20209;-88
2023/02/22 05:30:26;;;;;;;32.67;19.87;;;6.10;99.90;;;;;;5084580;28;20239;-88
2023/02/22 05:32:55;;;;;;;28.47;18.87;;;6.10;99.90;;;;;;5095851;28;20216;-87
2023/02/22 05:35:28;;;;;;;31.30;20.03;;;6.10;99.90;;;;;;5096456;28;20205;-87
2023/02/22 05:38:02;;;;;;;32.23;19.63;;;6.10;99.90;;;;;;5079437;28;20209;-87
2023/02/22 05:40:33;;;;;;;31.80;19.27;;;6.10;99.90;;;;;;5087540;28;20213;-89
2023/02/22 05:43:02;;;;;;;28.60;18.93;;;6.00;99.90;;;;;;5090357;28;20202;-87
2023/02/22 05:45:46;;;;;;;30.43;18.93;;;6.00;99.90;;;;;;5088699;28;20216;-88
2023/02/22 05:48:23;;;;;;;33.13;19.87;;;6.00;99.90;;;;;;5084484;28;20217;-87
2023/02/22 05:50:53;;;;;;;33.67;20.10;;;5.90;99.90;;;;;;5082330;28;20205;-90
2023/02/22 05:53:25;;;;;;;29.00;18.80;;;6.00;99.90;;;;;;5098168;28;20578;-90
2023/02/22 05:55:55;;;;;;;31.03;20.47;;;6.00;99.90;;;;;;5084395;28;20231;-88
2023/02/22 05:58:29;;;;;;;26.90;18.27;;;6.00;99.90;;;;;;5084292;28;20232;-88
2023/02/22 06:00:58;;;;;;;33.33;19.40;;;6.00;99.90;;;;;;5086571;28;20208;-89
2023/02/22 06:03:25;;;;;;;31.58;19.67;;;6.00;99.90;;;;;;5095376;28;20430;-86
2023/02/22 06:05:57;;;;;;;30.77;18.87;;;6.10;99.90;;;;;;5096687;28;20216;-89
2023/02/22 06:08:26;;;;;;;30.40;19.87;;;6.00;99.90;;;;;;5097118;28;20304;-89
2023/02/22 06:11:15;;;;;;;29.73;19.77;;;5.80;99.90;;;;;;5076762;28;20624;-87
2023/02/22 06:13:49;;;;;;;29.37;18.30;;;6.00;99.90;;;;;;5084209;28;20316;-87
2023/02/22 06:16:20;;;;;;;34.57;20.63;;;6.10;99.90;;;;;;5095301;28;20687;-92
2023/02/22 06:18:55;;;;;;;28.43;18.70;;;6.20;99.90;;;;;;5086019;28;20198;-87
2023/02/22 06:21:28;;;;;;;28.20;18.40;;;6.20;99.90;;;;;;5096690;28;20208;-87
2023/02/22 06:23:58;;;;;;;29.67;18.37;;;6.00;99.90;;;;;;5096738;28;20233;-88
2023/02/22 06:26:33;;;;;;;30.13;18.73;;;6.10;99.90;;;;;;5083445;28;20673;-88
2023/02/22 06:29:04;;;;;;;29.37;18.40;;;6.10;99.90;;;;;;5097106;28;20208;-89
2023/02/22 06:31:35;;;;;;;27.07;18.23;;;6.30;99.90;;;;;;5097726;28;20229;-88
2023/02/22 06:34:03;;;;;;;35.10;26.02;;;6.40;99.90;;;;;;5095412;28;20456;-88
2023/02/22 06:36:35;;;;;;;28.20;20.40;;;6.60;99.90;;;;;;5094853;28;20227;-88
2023/02/22 06:39:04;;;;;;;32.60;19.57;;;6.60;99.90;;;;;;5091486;28;20225;-88
2023/02/22 06:41:31;;;;;;;31.57;18.63;;;6.50;99.90;;;;;;5084249;28;20316;-88
2023/02/22 06:43:58;;;;;;;32.20;17.27;;;6.50;99.90;;;;;;5083996;28;20243;-88
2023/02/22 06:46:35;;;;;;;27.17;17.67;;;6.50;99.90;;;;;;5087625;28;20209;-87
2023/02/22 06:49:08;;;;;;;25.80;18.20;;;6.50;99.90;;;;;;5093176;28;20220;-87
2023/02/22 06:51:41;;;;;;;24.97;16.23;;;6.50;99.90;;;;;;5085081;28;20208;-90
2023/02/22 06:54:15;;;;;;;25.50;17.20;;;6.50;99.90;;;;;;5096315;28;20804;-88
2023/02/22 06:56:45;;;;;;;27.80;17.50;;;6.40;99.90;;;;;;5090221;28;20234;-88
2023/02/22 06:59:17;;;;;;;25.03;17.40;;;6.40;99.90;;;;;;5094695;28;20217;-89
2023/02/22 07:01:51;;;;;;;29.53;22.23;;;6.30;99.90;;;;;;5081905;28;20526;-87
2023/02/22 07:04:24;;;;;;;28.43;19.03;;;6.30;99.90;;;;;;5094458;28;20272;-89
2023/02/22 07:06:57;;;;;;;25.23;16.80;;;6.40;99.90;;;;;;5096829;28;20209;-91
2023/02/22 07:09:25;;;;;;;24.17;16.43;;;6.50;99.90;;;;;;5097947;28;20208;-89
2023/02/22 07:11:56;;;;;;;23.47;16.47;;;6.50;99.90;;;;;;5090284;28;20203;-90
2023/02/22 07:14:28;;;;;;;24.77;16.13;;;6.60;99.90;;;;;;5092022;28;20577;-90
2023/02/22 07:17:01;;;;;;;22.67;15.40;;;6.60;99.90;;;;;;5094519;28;20235;-89
2023/02/22 07:19:30;;;;;;;21.40;15.63;;;6.60;99.90;;;;;;5104504;28;20236;-90
2023/02/22 07:22:05;;;;;;;24.10;15.47;;;6.60;99.90;;;;;;5104957;28;20223;-86
2023/02/22 07:24:40;;;;;;;22.97;15.73;;;6.70;99.90;;;;;;5085552;28;20205;-88
2023/02/22 07:27:14;;;;;;;22.50;15.73;;;6.70;99.90;;;;;;5099363;28;20197;-86
2023/02/22 07:29:48;;;;;;;25.73;15.33;;;6.70;99.90;;;;;;5099880;28;20196;-86
2023/02/22 07:32:16;;;;;;;18.80;15.30;;;6.80;99.90;;;;;;5097266;28;20193;-88
2023/02/22 07:34:45;;;;;;;20.17;14.53;;;6.70;99.90;;;;;;5100942;28;20205;-87
2023/02/22 07:37:13;;;;;;;23.03;16.00;;;6.90;99.90;;;;;;5088296;28;20818;-86
2023/02/22 07:39:46;;;;;;;22.37;14.83;;;6.80;99.90;;;;;;5101587;28;20764;-90
2023/02/22 07:42:13;;;;;;;24.70;15.73;;;6.80;99.90;;;;;;5082757;28;20218;-87
2023/02/22 07:44:40;;;;;;;33.70;22.50;;;6.80;99.90;;;;;;5080105;28;20206;-90
2023/02/22 07:47:09;;;;;;;25.33;16.33;;;6.90;99.90;;;;;;5079411;28;20226;-89
2023/02/22 07:49:41;;;;;;;20.50;14.97;;;6.70;99.90;;;;;;5081353;28;20204;-88
2023/02/22 07:52:08;;;;;;;22.27;15.07;;;6.90;99.90;;;;;;5092302;28;20276;-86
2023/02/22 07:54:35;;;;;;;22.60;14.93;;;7.00;99.90;;;;;;5099522;28;20194;-88
2023/02/22 07:57:08;;;;;;;19.37;14.50;;;7.10;99.90;;;;;;5088471;28;20286;-89
2023/02/22 07:59:40;;;;;;;20.77;15.17;;;7.00;99.90;;;;;;5098107;28;20203;-89
2023/02/22 08:02:15;;;;;;;23.93;15.33;;;7.20;99.90;;;;;;5086903;28;20219;-90
2023/02/22 08:04:43;;;;;;;20.57;14.10;;;7.20;99.90;;;;;;5084722;28;20202;-88
2023/02/22 08:07:11;;;;;;;20.23;14.40;;;7.30;99.90;;;;;;5088565;28;20637;-88
2023/02/22 08:09:56;;;;;;;21.73;14.50;;;7.20;99.90;;;;;;5102001;28;20209;-89
2023/02/22 08:12:26;;;;;;;22.03;14.00;;;7.20;99.90;;;;;;5095926;28;20288;-86
2023/02/22 08:14:54;;;;;;;23.73;14.73;;;7.40;99.90;;;;;;5094402;28;20304;-89
2023/02/22 08:17:28;;;;;;;21.67;14.30;;;7.50;99.90;;;;;;5094812;28;20213;-87
2023/02/22 08:19:59;;;;;;;20.73;14.17;;;7.60;99.90;;;;;;5103764;28;20236;-87
2023/02/22 08:22:27;;;;;;;17.93;13.83;;;7.50;99.90;;;;;;5104531;28;20209;-87
2023/02/22 08:24:55;;;;;;;21.93;14.33;;;7.60;99.90;;;;;;5102235;28;20201;-89
2023/02/22 08:27:30;;;;;;;21.20;16.40;;;7.70;99.90;;;;;;5086805;28;20428;-88
2023/02/22 08:29:58;;;;;;;21.20;14.93;;;7.40;99.90;;;;;;5095835;28;20213;-91
2023/02/22 08:32:27;;;;;;;18.07;13.67;;;7.50;99.90;;;;;;5088708;28;20209;-86
2023/02/22 08:34:55;;;;;;;17.47;12.93;;;7.50;99.90;;;;;;5087440;28;20217;-90
2023/02/22 08:37:26;;;;;;;19.37;13.67;;;7.40;99.90;;;;;;5094644;28;20229;-89
2023/02/22 08:40:10;;;;;;;19.53;13.87;;;7.50;99.90;;;;;;5094248;28;20570;-87
2023/02/22 08:42:38;;;;;;;18.63;14.07;;;7.60;99.90;;;;;;5100628;28;20201;-87
2023/02/22 08:45:06;;;;;;;19.13;13.13;;;7.70;99.90;;;;;;5092752;28;20213;-87
2023/02/22 08:47:33;;;;;;;17.00;13.07;;;7.60;99.90;;;;;;5094988;28;20209;-90
2023/02/22 08:50:01;;;;;;;19.13;14.07;;;7.60;99.90;;;;;;5091743;28;20209;-88
2023/02/22 08:52:30;;;;;;;18.23;13.90;;;7.70;99.90;;;;;;5089365;28;20264;-92
2023/02/22 08:54:57;;;;;;;20.27;14.77;;;7.70;99.90;;;;;;5095057;28;20442;-85
2023/02/22 08:57:35;;;;;;;26.07;15.93;;;7.70;99.90;;;;;;5096486;28;20688;-88
2023/02/22 09:00:03;;;;;;;25.07;15.63;;;7.70;99.90;;;;;;5097923;28;20292;-88
2023/02/22 09:02:30;;;;;;;22.70;14.87;;;7.60;99.90;;;;;;5096897;28;20201;-89
2023/02/22 09:05:04;;;;;;;19.37;13.83;;;7.70;99.90;;;;;;5092205;28;20205;-91
2023/02/22 09:07:34;;;;;;;18.70;14.43;;;7.80;99.90;;;;;;5099678;28;20252;-87
2023/02/22 09:10:01;;;;;;;22.23;14.03;;;7.80;99.90;;;;;;5097841;28;20197;-88
2023/02/22 09:12:36;;;;;;;19.63;13.20;;;8.00;99.90;;;;;;5082010;28;20201;-85
2023/02/22 09:15:03;;;;;;;23.07;13.53;;;8.30;99.90;;;;;;5092250;28;20267;-85
2023/02/22 09:17:30;;;;;;;19.17;14.43;;;8.40;99.90;;;;;;5089742;28;20243;-88
2023/02/22 09:19:57;;;;;;;17.30;12.03;;;8.40;99.90;;;;;;5091274;28;20203;-86
2023/02/22 09:22:23;;;;;;;18.77;13.40;;;8.60;99.90;;;;;;5088949;28;20219;-88
2023/02/22 09:24:53;;;;;;;14.93;12.00;;;8.60;99.90;;;;;;5086270;28;20202;-84
2023/02/22 09:27:20;;;;;;;17.67;13.20;;;8.60;99.90;;;;;;5089225;28;20562;-85
2023/02/22 09:29:48;;;;;;;14.23;12.20;;;8.70;99.90;;;;;;5094950;28;20570;-85
2023/02/22 09:32:16;;;;;;;20.73;13.60;;;8.80;99.90;;;;;;5081957;28;20200;-84
2023/02/22 09:34:44;;;;;;;17.33;13.00;;;8.80;99.90;;;;;;5086344;28;20225;-84
2023/02/22 09:37:14;;;;;;;15.17;12.53;;;8.90;99.90;;;;;;5077632;28;20253;-86
2023/02/22 09:39:40;;;;;;;16.07;12.40;;;9.00;99.90;;;;;;5092911;28;20197;-85
2023/02/22 09:42:15;;;;;;;17.17;13.67;;;9.20;99.90;;;;;;5093757;28;20216;-89
2023/02/22 09:44:48;;;;;;;19.27;13.03;;;9.20;99.90;;;;;;5084047;28;20201;-86
2023/02/22 09:47:18;;;;;;;19.67;12.57;;;9.40;99.90;;;;;;5088260;28;20209;-87
2023/02/22 09:49:56;;;;;;;19.30;13.13;;;9.50;99.90;;;;;;5089830;28;20296;-85
2023/02/22 09:52:27;;;;;;;20.73;14.07;;;9.60;99.90;;;;;;5089973;28;20208;-86
2023/02/22 09:55:04;;;;;;;16.33;12.60;;;9.70;99.90;;;;;;5094345;28;20621;-85
2023/02/22 09:57:38;;;;;;;19.63;13.40;;;9.60;99.90;;;;;;5080500;28;20253;-88
2023/02/22 10:00:16;;;;;;;20.17;13.77;;;9.80;99.90;;;;;;5075233;28;20205;-85
2023/02/22 10:02:51;;;;;;;17.70;13.03;;;10.00;99.90;;;;;;5081442;28;20219;-84
2023/02/22 10:05:26;;;;;;;22.27;13.57;;;10.10;99.90;;;;;;5082190;28;20194;-86
2023/02/22 10:07:58;;;;;;;21.93;13.70;;;10.10;99.90;;;;;;5085719;28;20221;-87
2023/02/22 10:10:27;;;;;;;21.63;13.17;;;10.10;99.90;;;;;;5087851;28;20206;-84
2023/02/22 10:13:05;;;;;;;18.20;13.60;;;10.00;99.90;;;;;;5086457;28;20515;-82
2023/02/22 10:15:42;;;;;;;22.13;13.23;;;10.00;99.90;;;;;;5083213;28;20660;-84
2023/02/22 10:18:45;;;;;;;17.10;13.27;;;10.10;99.90;;;;;;5075907;28;20209;-84
2023/02/22 10:21:22;;;;;;;21.30;13.87;;;10.30;99.90;;;;;;5081322;28;20186;-85
2023/02/22 10:24:03;;;;;;;19.90;13.93;;;10.30;99.90;;;;;;5080605;28;20202;-86
2023/02/22 10:26:35;;;;;;;18.87;13.30;;;10.30;99.90;;;;;;5091143;28;20296;-79
2023/02/22 10:29:14;;;;;;;18.03;14.10;;;10.30;99.90;;;;;;5092577;28;20583;-80
2023/02/22 10:31:45;;;;;;;20.87;14.43;;;10.40;99.90;;;;;;5084899;28;20646;-80
2023/02/22 10:34:15;;;;;;;21.73;14.20;;;10.60;99.90;;;;;;5085089;28;20206;-80
2023/02/22 10:36:43;;;;;;;20.33;14.20;;;10.60;99.90;;;;;;5091290;28;20213;-80
2023/02/22 10:39:20;;;;;;;18.80;13.77;;;10.70;99.90;;;;;;5083407;28;20204;-80
2023/02/22 10:41:51;;;;;;;17.60;13.90;;;10.90;99.90;;;;;;5084526;28;20210;-81
2023/02/22 10:44:19;;;;;;;22.40;14.97;;;10.90;99.90;;;;;;5085093;28;20260;-93
2023/02/22 10:46:47;;;;;;;18.90;14.73;;;11.00;99.90;;;;;;5077090;28;20563;-90
2023/02/22 10:49:20;;;;;;;20.73;14.90;;;11.20;99.90;;;;;;5092009;28;20220;-90
2023/02/22 10:51:48;;;;;;;18.30;15.40;;;11.30;99.90;;;;;;5090987;28;20206;-91
2023/02/22 10:54:25;;;;;;;19.43;15.47;;;11.20;99.90;;;;;;5091688;28;20210;-89
2023/02/22 10:56:55;;;;;;;20.13;15.53;;;11.20;99.90;;;;;;5093800;28;20267;-91
2023/02/22 10:59:32;;;;;;;18.43;15.70;;;11.00;99.90;;;;;;5093510;28;20211;-92
2023/02/22 11:02:00;;;;;;;19.53;16.00;;;11.00;99.90;;;;;;5092992;28;20214;-89
2023/02/22 11:04:43;;;;;;;22.50;16.20;;;11.20;99.90;;;;;;5089946;28;20222;-88
2023/02/22 11:07:19;;;;;;;23.50;17.10;;;11.10;99.90;;;;;;5097497;28;20208;-89
2023/02/22 11:09:50;;;;;;;27.37;17.93;;;11.20;99.90;;;;;;5095743;28;20203;-91
2023/02/22 11:12:20;;;;;;;26.10;17.23;;;11.10;99.90;;;;;;5092580;28;20208;-89
2023/02/22 11:14:51;;;;;;;23.60;17.17;;;11.00;99.90;;;;;;5090544;28;20253;-89
2023/02/22 11:17:26;;;;;;;24.03;17.97;;;10.90;99.90;;;;;;5095003;28;20231;-88
2023/02/22 11:19:57;;;;;;;20.13;16.93;;;10.90;99.90;;;;;;5088421;28;20210;-91
2023/02/22 11:22:29;;;;;;;24.97;17.63;;;10.90;99.90;;;;;;5086510;28;20225;-90
2023/02/22 11:25:00;;;;;;;21.00;16.87;;;10.90;99.90;;;;;;5089177;28;20249;-90
2023/02/22 11:27:37;;;;;;;22.17;17.70;;;10.90;99.90;;;;;;5088451;28;20214;-93
2023/02/22 11:30:19;;;;;;;27.83;18.13;;;11.00;99.90;;;;;;5091191;28;20320;-91
2023/02/22 11:32:53;;;;;;;22.23;17.27;;;11.10;99.90;;;;;;5091860;28;20204;-90
2023/02/22 11:35:31;;;;;;;22.97;19.13;;;11.10;99.90;;;;;;5090180;28;20609;-89
2023/02/22 11:38:11;;;;;;;21.83;18.30;;;11.20;99.90;;;;;;5086012;28;20232;-88
2023/02/22 11:40:40;;;;;;;29.67;18.87;;;11.50;99.90;;;;;;5080750;28;20212;-83
2023/02/22 11:43:11;;;;;;;25.97;19.00;;;11.70;99.90;;;;;;5086890;28;20213;-86
2023/02/22 11:45:59;;;;;;;21.10;18.43;;;11.50;99.90;;;;;;5091185;28;20303;-82
2023/02/22 11:48:29;;;;;;;30.83;18.87;;;11.50;99.90;;;;;;5085309;28;20216;-82
2023/02/22 11:51:12;;;;;;;22.43;18.70;;;11.70;99.90;;;;;;5101437;28;20239;-82
2023/02/22 11:54:01;;;;;;;26.80;19.60;;;11.50;99.90;;;;;;5091550;28;20214;-83
2023/02/22 11:56:34;;;;;;;21.80;18.83;;;11.70;99.90;;;;;;5094753;28;20220;-82
2023/02/22 11:59:12;;;;;;;27.33;19.33;;;11.90;99.90;;;;;;5095980;28;20224;-83
2023/02/22 12:01:47;;;;;;;30.77;19.27;;;11.80;99.90;;;;;;5085646;28;20280;-82
2023/02/22 12:05:06;;;;;;;27.03;20.50;;;11.80;99.90;;;;;;5087480;28;20215;-82
2023/02/22 12:07:49;;;;;;;25.03;20.43;;;12.00;99.90;;;;;;5084096;28;20617;-83
2023/02/22 12:10:26;;;;;;;28.53;20.53;;;12.10;99.90;;;;;;5095767;28;20295;-83
2023/02/22 12:13:10;;;;;;;26.03;20.40;;;12.30;99.90;;;;;;5095211;28;20200;-83
2023/02/22 12:15:48;;;;;;;27.23;20.23;;;12.30;99.90;;;;;;5096506;28;20216;-82
2023/02/22 12:18:26;;;;;;;28.00;20.63;;;12.10;99.90;;;;;;5081098;28;20220;-83
2023/02/22 12:20:57;;;;;;;26.27;21.37;;;12.00;99.90;;;;;;5083157;28;20577;-83
2023/02/22 12:23:30;;;;;;;29.93;22.23;;;12.00;99.90;;;;;;5094087;28;20220;-82
2023/02/22 12:26:04;;;;;;;28.30;23.17;;;11.90;99.90;;;;;;5095327;28;20214;-81
2023/02/22 12:28:36;;;;;;;32.37;23.83;;;11.90;99.90;;;;;;5083965;28;20208;-82
2023/02/22 12:31:21;;;;;;;31.33;24.13;;;12.00;99.90;;;;;;5095388;28;20215;-84
2023/02/22 12:34:00;;;;;;;31.63;24.37;;;12.10;99.90;;;;;;5095050;28;20204;-83
2023/02/22 12:36:35;;;;;;;31.43;24.60;;;12.10;99.90;;;;;;5094386;28;20207;-84
2023/02/22 12:39:11;;;;;;;31.63;25.30;;;12.00;99.90;;;;;;5095669;28;20235;-82
2023/02/22 12:41:45;;;;;;;31.37;25.80;;;11.90;99.90;;;;;;5095957;28;20196;-81
2023/02/22 12:44:19;;;;;;;38.67;28.60;;;12.00;99.90;;;;;;5095322;28;20218;-84
2023/02/22 12:46:49;;;;;;;37.67;32.80;;;12.00;99.90;;;;;;5094557;28;20432;-79
2023/02/22 12:49:27;;;;;;;34.20;28.87;;;11.80;99.90;;;;;;5094735;28;20215;-83
2023/02/22 12:52:00;;;;;;;40.33;27.50;;;11.90;99.90;;;;;;5095693;28;20763;-83
2023/02/22 12:54:40;;;;;;;29.87;26.17;;;11.80;99.90;;;;;;5095803;28;20215;-93
2023/02/22 12:57:17;;;;;;;34.53;26.43;;;11.60;99.90;;;;;;5095309;28;20208;-83
2023/02/22 12:59:49;;;;;;;33.60;27.30;;;11.40;99.90;;;;;;5094713;28;20239;-81
2023/02/22 13:02:20;;;;;;;34.70;27.97;;;11.30;99.90;;;;;;5095024;28;20681;-82
2023/02/22 13:04:48;;;;;;;40.40;28.50;;;11.20;99.90;;;;;;5094193;28;20230;-81
2023/02/22 13:07:30;;;;;;;41.97;27.87;;;11.10;99.90;;;;;;5074203;28;20571;-82